Bo Airport

Jump to: basic info | weather | comments

Related pages: nearby airports | nearby navaids | notams | map

Basic information (top)

Codes: KBS GFBO
Location: lon 7.944400, lat -11.761000, elev 328 ft / 100 m msl
Status: medium_airport
Scheduled airline service: yes
Links: Wikipedia Mobile

Weather (top)

Current conditions for Lungi International Airport 94nm (175km) WNW (rec'd 2014/09/23 10:00Z):

GFLL 231000Z /////KT NSW SCT012 FEW027CB 26/25 Q1015 RMK CB-NE

Airport forecast for Lungi International Airport 94nm (175km) WNW (rec'd 2014/09/23 06:03Z):

TAF TAF GFLL 230400Z 2306/2412 12005KT 9999 BKN010 FEW027CB 
      BECMG 2307/2409 09002KT 5000 BR BKN008 
      TEMPO 2310/2315 27010KT TS/TSRA BKN010 
      TEMPO 2316/2323 27010KT 9999 BKN012 FEW027CB

Latest comments (top)

No comments yet for Bo Airport

More... (top)

See also NOTAMs and nearby airports and navaids, or visit the Bo Airport page at the main OurAirports website..